Time;durP1;ratioP1;P1;durP2;ratioP2;P2;SDS_P1;SDS_P2;PMS_P1;PMS_P2;Temp;Humidity;BMP_temperature;BMP_pressure;BME280_temperature;BME280_humidity;BME280_pressure;Samples;Min_cycle;Max_cycle;Signal;HPM_P1;HPM_P2
2022/03/30 00:01:05;;;;;;;21.83;9.40;;;13.30;99.90;;;;;;5091719;28;20028;-74
2022/03/30 00:03:30;;;;;;;17.13;9.20;;;13.20;99.90;;;;;;5090832;28;20028;-73
2022/03/30 00:05:57;;;;;;;21.75;9.55;;;13.20;99.90;;;;;;5073451;28;20032;-74
2022/03/30 00:08:23;;;;;;;18.83;9.40;;;13.20;99.90;;;;;;5093567;28;20036;-74
2022/03/30 00:10:49;;;;;;;16.48;9.70;;;13.20;99.90;;;;;;5093308;28;20028;-74
2022/03/30 00:13:15;;;;;;;16.95;9.50;;;13.20;99.90;;;;;;5091240;28;20032;-74
2022/03/30 00:15:41;;;;;;;20.05;10.52;;;13.10;99.90;;;;;;5091896;28;20024;-74
2022/03/30 00:18:07;;;;;;;18.25;9.48;;;13.10;99.90;;;;;;5091010;28;20550;-74
2022/03/30 00:20:33;;;;;;;28.15;11.60;;;13.10;99.90;;;;;;5092084;28;20028;-73
2022/03/30 00:22:58;;;;;;;23.17;14.25;;;13.10;99.90;;;;;;5094614;28;20028;-73
2022/03/30 00:25:24;;;;;;;26.35;15.10;;;13.10;99.90;;;;;;5091162;28;20056;-73
2022/03/30 00:27:50;;;;;;;23.05;16.05;;;13.10;99.90;;;;;;5091235;28;20040;-73
2022/03/30 00:30:19;;;;;;;23.17;13.60;;;13.10;99.90;;;;;;5072958;28;20028;-73
2022/03/30 00:32:44;;;;;;;18.55;9.38;;;13.10;99.90;;;;;;5090774;28;20036;-73
2022/03/30 00:35:11;;;;;;;26.65;8.50;;;13.10;99.90;;;;;;5094115;28;20502;-74
2022/03/30 00:37:37;;;;;;;22.63;8.60;;;13.10;99.90;;;;;;5092112;28;20157;-73
2022/03/30 00:40:06;;;;;;;21.00;8.00;;;13.10;99.90;;;;;;5090768;28;20029;-73
2022/03/30 00:42:32;;;;;;;20.77;8.70;;;13.00;99.90;;;;;;5090763;28;20039;-73
2022/03/30 00:44:57;;;;;;;24.67;8.73;;;13.00;99.90;;;;;;5090928;28;20028;-73
2022/03/30 00:47:27;;;;;;;23.77;8.75;;;13.00;99.90;;;;;;5092761;28;20028;-73
2022/03/30 00:49:53;;;;;;;22.95;9.38;;;12.90;99.90;;;;;;5092657;28;20043;-73
2022/03/30 00:52:20;;;;;;;18.23;8.18;;;12.90;99.90;;;;;;5089809;28;20040;-73
2022/03/30 00:54:49;;;;;;;21.85;8.55;;;12.90;99.90;;;;;;5090651;28;20024;-73
2022/03/30 00:57:17;;;;;;;22.60;8.32;;;12.90;99.90;;;;;;5090542;28;20039;-73
2022/03/30 00:59:43;;;;;;;25.15;7.75;;;12.90;99.90;;;;;;5090686;28;20027;-73
2022/03/30 01:02:09;;;;;;;28.38;8.98;;;12.90;99.90;;;;;;5093483;28;20114;-73
2022/03/30 01:04:35;;;;;;;29.88;9.07;;;12.90;99.90;;;;;;5091436;28;20129;-73
2022/03/30 01:07:02;;;;;;;22.08;8.60;;;12.90;99.90;;;;;;5090489;28;20028;-73
2022/03/30 01:09:28;;;;;;;20.52;8.50;;;12.80;99.90;;;;;;5090306;28;20044;-73
2022/03/30 01:11:55;;;;;;;21.70;8.13;;;12.80;99.90;;;;;;5091864;28;20534;-73
2022/03/30 01:14:22;;;;;;;26.88;8.63;;;12.80;99.90;;;;;;5092860;28;20392;-73
2022/03/30 01:16:48;;;;;;;26.20;9.15;;;12.80;99.90;;;;;;5091417;28;20035;-73
2022/03/30 01:19:14;;;;;;;22.58;8.52;;;12.80;99.90;;;;;;5090208;28;20024;-72
2022/03/30 01:21:42;;;;;;;19.08;8.13;;;12.80;99.90;;;;;;5090172;28;20421;-73
2022/03/30 01:24:09;;;;;;;22.83;8.00;;;12.80;99.90;;;;;;5090305;28;20393;-73
2022/03/30 01:26:36;;;;;;;22.55;8.35;;;12.80;99.90;;;;;;5056793;28;20028;-73
2022/03/30 01:32:25;;;;;;;18.20;8.25;;;12.80;99.90;;;;;;5108979;28;20058;-73
2022/03/30 01:34:40;;;;;;;17.85;8.63;;;12.80;99.90;;;;;;5092059;28;20034;-73
2022/03/30 01:37:08;;;;;;;18.15;8.45;;;12.80;99.90;;;;;;5090380;28;20024;-72
2022/03/30 01:39:34;;;;;;;20.27;8.32;;;12.80;99.90;;;;;;5089792;28;20031;-74
2022/03/30 01:42:00;;;;;;;23.63;8.60;;;12.80;99.90;;;;;;5089736;28;20107;-73
2022/03/30 01:44:26;;;;;;;25.75;9.43;;;12.80;99.90;;;;;;5091419;28;20024;-73
2022/03/30 01:46:52;;;;;;;19.35;9.38;;;12.80;99.90;;;;;;5091184;28;20028;-73
2022/03/30 01:49:21;;;;;;;23.75;9.07;;;12.80;99.90;;;;;;5089351;28;20119;-72
2022/03/30 01:51:51;;;;;;;24.92;9.27;;;12.90;99.90;;;;;;5089428;28;20093;-73
2022/03/30 01:54:20;;;;;;;21.77;9.30;;;12.90;99.90;;;;;;5089947;28;20032;-73
2022/03/30 01:56:46;;;;;;;27.65;9.02;;;12.80;99.90;;;;;;5089510;28;20066;-72
2022/03/30 01:59:12;;;;;;;22.98;10.27;;;12.80;99.90;;;;;;5092105;28;20035;-73
2022/03/30 02:01:38;;;;;;;21.48;9.48;;;12.80;99.90;;;;;;5089918;28;20020;-73
2022/03/30 02:04:06;;;;;;;20.67;9.55;;;12.80;99.90;;;;;;5089137;28;20039;-72
2022/03/30 02:06:33;;;;;;;20.58;8.55;;;12.80;99.90;;;;;;5089801;28;20016;-73
2022/03/30 02:08:59;;;;;;;21.15;8.85;;;12.90;99.90;;;;;;5089481;28;20035;-73
2022/03/30 02:11:26;;;;;;;29.02;9.70;;;12.80;99.90;;;;;;5091031;28;20384;-73
2022/03/30 02:13:52;;;;;;;23.48;9.10;;;12.80;99.90;;;;;;5090456;28;20038;-73
2022/03/30 02:16:18;;;;;;;22.40;9.15;;;12.90;99.90;;;;;;5089430;28;20036;-73
2022/03/30 02:18:44;;;;;;;20.83;8.57;;;12.90;99.90;;;;;;5089052;28;20028;-72
2022/03/30 02:21:10;;;;;;;19.20;8.95;;;12.80;99.90;;;;;;5089131;28;20031;-73
2022/03/30 02:23:37;;;;;;;19.42;9.10;;;12.80;99.90;;;;;;5089625;28;20020;-72
2022/03/30 02:26:03;;;;;;;25.77;8.82;;;12.90;99.90;;;;;;5092445;28;20514;-72
2022/03/30 02:28:29;;;;;;;22.58;9.18;;;12.90;99.90;;;;;;5089078;28;20020;-73
2022/03/30 02:30:55;;;;;;;20.13;8.77;;;12.90;99.90;;;;;;5090190;28;20067;-72
2022/03/30 02:33:20;;;;;;;20.65;10.10;;;12.80;99.90;;;;;;5088713;28;20523;-72
2022/03/30 02:35:46;;;;;;;23.80;9.38;;;12.80;99.90;;;;;;5088907;28;20021;-72
2022/03/30 02:38:12;;;;;;;20.02;8.70;;;12.80;99.90;;;;;;5091733;28;20086;-73
2022/03/30 02:40:38;;;;;;;22.27;9.82;;;12.80;99.90;;;;;;5089495;28;20020;-72
2022/03/30 02:43:04;;;;;;;23.70;9.13;;;12.80;99.90;;;;;;5087803;28;20028;-72
2022/03/30 02:45:30;;;;;;;25.33;9.25;;;12.70;99.90;;;;;;5088643;28;20047;-73
2022/03/30 02:50:41;;;;;;;;;;;12.80;99.90;;;;;;5073443;28;20081;-73
2022/03/30 02:53:07;;;;;;;23.40;8.50;;;12.70;99.90;;;;;;5092079;28;19943;-72
2022/03/30 02:55:32;;;;;;;23.75;9.35;;;12.70;99.90;;;;;;5088570;28;20062;-73
2022/03/30 02:57:58;;;;;;;26.40;8.70;;;12.80;99.90;;;;;;5088459;28;20059;-73
2022/03/30 03:00:24;;;;;;;28.33;8.82;;;12.70;99.90;;;;;;5088483;28;20408;-72
2022/03/30 03:02:50;;;;;;;25.02;9.10;;;12.70;99.90;;;;;;5088607;28;20063;-72
2022/03/30 03:05:15;;;;;;;25.38;8.60;;;12.70;99.90;;;;;;5090910;28;20028;-72
2022/03/30 03:07:41;;;;;;;29.45;9.65;;;12.70;99.90;;;;;;5089599;28;20020;-73
2022/03/30 03:10:09;;;;;;;27.15;9.30;;;12.70;99.90;;;;;;5088515;28;20039;-72
2022/03/30 03:12:35;;;;;;;27.13;8.77;;;12.60;99.90;;;;;;5087774;28;20408;-73
2022/03/30 03:15:01;;;;;;;26.95;8.38;;;12.70;99.90;;;;;;5087765;28;20024;-73
2022/03/30 03:17:26;;;;;;;24.75;8.30;;;12.70;99.90;;;;;;5090140;28;20446;-73
2022/03/30 03:19:52;;;;;;;27.50;9.00;;;12.70;99.90;;;;;;5090079;28;20097;-73
2022/03/30 03:22:18;;;;;;;30.40;9.13;;;12.70;99.90;;;;;;5088121;28;20523;-73
2022/03/30 03:24:44;;;;;;;26.58;9.15;;;12.60;99.90;;;;;;5088048;28;20051;-73
2022/03/30 03:27:10;;;;;;;22.85;8.60;;;12.70;99.90;;;;;;5087975;28;20510;-73
2022/03/30 03:29:35;;;;;;;28.48;9.27;;;12.60;99.90;;;;;;5089251;28;20016;-73
2022/03/30 03:32:01;;;;;;;28.05;8.90;;;12.60;99.90;;;;;;5091095;28;20042;-72
2022/03/30 03:34:27;;;;;;;28.30;8.70;;;12.60;99.90;;;;;;5088340;28;20119;-73
2022/03/30 03:36:53;;;;;;;24.48;8.68;;;12.60;99.90;;;;;;5088154;28;20404;-73
2022/03/30 03:39:18;;;;;;;26.80;8.13;;;12.60;99.90;;;;;;5088029;28;20031;-73
2022/03/30 03:41:44;;;;;;;31.10;9.32;;;12.60;99.90;;;;;;5087910;28;20453;-73
2022/03/30 03:44:10;;;;;;;25.85;8.88;;;12.60;99.90;;;;;;5091607;28;20036;-73
2022/03/30 03:46:36;;;;;;;25.35;8.27;;;12.50;99.90;;;;;;5088285;28;20063;-72
2022/03/30 03:49:01;;;;;;;30.40;8.05;;;12.40;99.90;;;;;;5087851;28;20070;-73
2022/03/30 03:51:27;;;;;;;27.88;8.23;;;12.50;99.90;;;;;;5088088;28;20082;-73
2022/03/30 03:53:53;;;;;;;24.08;8.18;;;12.50;99.90;;;;;;5088067;28;20033;-72
2022/03/30 03:56:19;;;;;;;27.92;9.05;;;12.50;99.90;;;;;;5090223;28;20073;-73
2022/03/30 03:58:44;;;;;;;26.55;8.43;;;12.50;99.90;;;;;;5089309;28;20484;-73
2022/03/30 04:01:10;;;;;;;26.17;8.07;;;12.40;99.90;;;;;;5087701;28;20039;-73
2022/03/30 04:03:36;;;;;;;32.20;8.80;;;12.50;99.90;;;;;;5087841;28;20040;-73
2022/03/30 04:06:03;;;;;;;32.08;9.75;;;12.40;99.90;;;;;;5087898;28;20028;-72
2022/03/30 04:08:29;;;;;;;30.77;7.80;;;12.40;99.90;;;;;;5089521;28;20028;-73
2022/03/30 04:10:54;;;;;;;24.35;9.00;;;12.40;99.90;;;;;;5089425;28;20027;-73
2022/03/30 04:13:20;;;;;;;30.80;9.10;;;12.40;99.90;;;;;;5087798;28;20058;-73
2022/03/30 04:15:46;;;;;;;28.02;8.23;;;12.40;99.90;;;;;;5087701;28;20089;-73
2022/03/30 04:18:12;;;;;;;31.35;9.23;;;12.40;99.90;;;;;;5087975;28;20576;-73
2022/03/30 04:20:42;;;;;;;26.25;9.07;;;12.30;99.90;;;;;;5088325;28;20025;-73
2022/03/30 04:23:08;;;;;;;33.22;9.32;;;12.30;99.90;;;;;;5087025;28;20107;-73
2022/03/30 04:25:33;;;;;;;29.25;8.93;;;12.30;99.90;;;;;;5087462;28;20044;-73
2022/03/30 04:27:59;;;;;;;30.33;8.65;;;12.30;99.90;;;;;;5091579;28;20115;-73
2022/03/30 04:30:25;;;;;;;29.50;8.32;;;12.30;99.90;;;;;;5091074;28;20563;-73
2022/03/30 04:32:51;;;;;;;28.67;9.13;;;12.30;99.90;;;;;;5091148;28;20131;-73
2022/03/30 04:35:18;;;;;;;34.15;8.45;;;12.30;99.90;;;;;;5093477;28;20099;-72
2022/03/30 04:37:44;;;;;;;24.33;8.68;;;12.40;99.90;;;;;;5093174;28;20036;-72
2022/03/30 04:40:10;;;;;;;31.60;9.02;;;12.30;99.90;;;;;;5090538;28;20031;-73
2022/03/30 04:42:36;;;;;;;24.70;8.55;;;12.30;99.90;;;;;;5091326;28;20028;-74
2022/03/30 04:45:02;;;;;;;22.38;8.40;;;12.30;99.90;;;;;;5091040;28;20031;-73
2022/03/30 04:47:28;;;;;;;30.90;8.88;;;12.40;99.90;;;;;;5092536;28;20043;-73
2022/03/30 04:49:54;;;;;;;32.50;9.18;;;12.30;99.90;;;;;;5092830;28;20040;-73
2022/03/30 04:52:19;;;;;;;21.63;8.13;;;12.30;99.90;;;;;;5090505;28;20092;-73
2022/03/30 04:54:45;;;;;;;26.77;8.73;;;12.30;99.90;;;;;;5090755;28;20157;-73
2022/03/30 04:57:11;;;;;;;22.25;7.45;;;12.40;99.90;;;;;;5090548;28;20028;-73
2022/03/30 04:59:37;;;;;;;24.95;8.73;;;12.30;99.90;;;;;;5090758;28;20024;-72
2022/03/30 05:02:03;;;;;;;28.83;9.30;;;12.20;99.90;;;;;;5093654;28;20032;-72
2022/03/30 05:04:32;;;;;;;30.10;8.85;;;12.20;99.90;;;;;;5090898;28;20099;-72
2022/03/30 05:06:58;;;;;;;32.42;9.73;;;12.20;99.90;;;;;;5090182;28;20085;-73
2022/03/30 05:09:23;;;;;;;28.52;9.55;;;12.30;99.90;;;;;;5090098;28;20024;-73
2022/03/30 05:11:50;;;;;;;34.63;9.90;;;12.20;99.90;;;;;;5090452;28;20033;-72
2022/03/30 05:14:16;;;;;;;27.83;8.57;;;12.20;99.90;;;;;;5092778;28;20084;-73
2022/03/30 05:16:42;;;;;;;31.33;10.00;;;12.30;99.90;;;;;;5091806;28;20187;-73
2022/03/30 05:19:08;;;;;;;31.45;9.60;;;12.20;99.90;;;;;;5090397;28;20032;-73
2022/03/30 05:21:34;;;;;;;32.65;9.65;;;12.30;99.90;;;;;;5089598;28;20081;-73
2022/03/30 05:24:00;;;;;;;27.85;10.00;;;12.20;99.90;;;;;;5090310;28;20450;-73
2022/03/30 05:26:26;;;;;;;33.40;9.63;;;12.20;99.90;;;;;;5092387;28;20017;-73
2022/03/30 05:28:52;;;;;;;29.38;11.18;;;12.20;99.90;;;;;;5091577;28;20081;-72
2022/03/30 05:31:17;;;;;;;34.05;10.07;;;12.20;99.90;;;;;;5090266;28;20036;-72
2022/03/30 05:33:43;;;;;;;30.70;9.57;;;12.20;99.90;;;;;;5090054;28;20035;-73
2022/03/30 05:36:09;;;;;;;27.73;9.98;;;12.30;99.90;;;;;;5089881;28;20520;-73
2022/03/30 05:38:35;;;;;;;27.95;9.45;;;12.30;99.90;;;;;;5071524;28;20028;-73
2022/03/30 05:41:02;;;;;;;29.60;9.55;;;12.30;99.90;;;;;;5092621;28;20020;-72
2022/03/30 05:43:28;;;;;;;25.58;8.80;;;12.30;99.90;;;;;;5088986;28;20092;-73
2022/03/30 05:45:54;;;;;;;27.77;9.75;;;12.30;99.90;;;;;;5090901;28;20086;-73
2022/03/30 05:48:20;;;;;;;27.00;9.85;;;12.20;99.90;;;;;;5089365;28;20048;-73
2022/03/30 05:50:45;;;;;;;25.45;8.10;;;12.30;99.90;;;;;;5089156;28;20082;-73
2022/03/30 05:53:13;;;;;;;31.33;10.18;;;12.20;99.90;;;;;;5092446;28;20043;-73
2022/03/30 05:55:40;;;;;;;25.77;8.48;;;12.20;99.90;;;;;;5090742;28;20465;-73
2022/03/30 05:58:06;;;;;;;29.75;8.77;;;12.30;99.90;;;;;;5089220;28;20119;-72
2022/03/30 06:00:32;;;;;;;25.48;9.40;;;12.30;99.90;;;;;;5089475;28;20028;-72
2022/03/30 06:02:58;;;;;;;25.58;10.48;;;12.30;99.90;;;;;;5089375;28;20019;-72
2022/03/30 06:05:24;;;;;;;31.63;8.55;;;12.40;99.90;;;;;;5091792;28;20029;-73
2022/03/30 06:07:49;;;;;;;27.45;8.50;;;12.30;99.90;;;;;;5106293;28;20046;-72
2022/03/30 06:10:16;;;;;;;31.23;9.30;;;12.30;99.90;;;;;;5089003;28;20024;-73
2022/03/30 06:12:42;;;;;;;29.48;9.05;;;12.20;99.90;;;;;;5089456;28;20043;-72
2022/03/30 06:15:09;;;;;;;29.33;9.70;;;12.30;99.90;;;;;;5089440;28;20027;-69
2022/03/30 06:17:35;;;;;;;26.20;8.90;;;12.30;99.90;;;;;;5090015;28;20107;-69
2022/03/30 06:20:03;;;;;;;26.17;8.85;;;12.40;99.90;;;;;;5091863;28;20158;-69
2022/03/30 06:22:30;;;;;;;23.27;7.65;;;12.40;99.90;;;;;;5088566;28;20503;-69
2022/03/30 06:24:56;;;;;;;24.35;8.88;;;12.40;99.90;;;;;;5090476;28;20043;-69
2022/03/30 06:27:22;;;;;;;31.50;9.75;;;12.50;99.90;;;;;;5088838;28;20027;-69
2022/03/30 06:29:48;;;;;;;30.55;10.00;;;12.50;99.90;;;;;;5089625;28;20078;-69
2022/03/30 06:32:14;;;;;;;26.08;9.13;;;12.50;99.90;;;;;;5091685;28;20097;-68
2022/03/30 06:34:40;;;;;;;27.67;8.80;;;12.50;99.90;;;;;;5089437;28;20038;-68
2022/03/30 06:37:06;;;;;;;25.67;8.85;;;12.50;99.90;;;;;;5088530;28;20036;-69
2022/03/30 06:39:33;;;;;;;28.33;9.20;;;12.50;99.90;;;;;;5088745;28;20028;-69
2022/03/30 06:41:59;;;;;;;24.17;8.82;;;12.50;99.90;;;;;;5089231;28;20028;-68
2022/03/30 06:44:25;;;;;;;24.52;8.85;;;12.40;99.90;;;;;;5086863;28;20031;-69
2022/03/30 06:46:51;;;;;;;24.45;8.80;;;12.50;99.90;;;;;;5085826;28;20028;-69
2022/03/30 06:49:16;;;;;;;29.33;10.23;;;12.50;99.90;;;;;;5083738;28;20041;-69
2022/03/30 06:51:42;;;;;;;23.05;8.52;;;12.50;99.90;;;;;;5083647;28;20044;-69
2022/03/30 06:54:08;;;;;;;21.60;9.70;;;12.50;99.90;;;;;;5084149;28;20032;-69
2022/03/30 06:56:34;;;;;;;28.30;10.23;;;12.50;99.90;;;;;;5085294;28;20024;-69
2022/03/30 06:59:00;;;;;;;23.45;9.02;;;12.50;99.90;;;;;;5087095;28;20054;-69
2022/03/30 07:01:26;;;;;;;29.48;10.32;;;12.40;99.90;;;;;;5083612;28;20067;-69
2022/03/30 07:03:51;;;;;;;28.25;10.45;;;12.50;99.90;;;;;;5082165;28;20485;-69
2022/03/30 07:06:17;;;;;;;25.92;9.65;;;12.50;99.90;;;;;;5083843;28;20038;-69
2022/03/30 07:11:27;;;;;;;23.40;9.60;;;12.50;99.90;;;;;;5086002;28;20067;-69
2022/03/30 07:13:56;;;;;;;29.08;9.18;;;12.50;99.90;;;;;;5086416;28;20055;-69
2022/03/30 07:16:23;;;;;;;26.20;9.73;;;12.50;99.90;;;;;;5084212;28;20030;-69
2022/03/30 07:18:50;;;;;;;30.38;9.23;;;12.50;99.90;;;;;;5083266;28;20093;-69
2022/03/30 07:21:16;;;;;;;22.92;8.52;;;12.50;99.90;;;;;;5083660;28;20085;-69
2022/03/30 07:23:42;;;;;;;29.73;9.15;;;12.60;99.90;;;;;;5084538;28;20028;-69
2022/03/30 07:26:08;;;;;;;22.00;8.32;;;12.60;99.90;;;;;;5087364;28;20069;-69
2022/03/30 07:28:35;;;;;;;22.63;8.02;;;12.60;99.90;;;;;;5083600;28;20024;-69
2022/03/30 07:31:01;;;;;;;23.08;9.48;;;12.60;99.90;;;;;;5083587;28;20032;-68
2022/03/30 07:33:28;;;;;;;23.23;9.13;;;12.70;99.90;;;;;;5083669;28;20085;-68
2022/03/30 07:35:54;;;;;;;24.17;8.40;;;12.70;99.90;;;;;;5084310;28;20028;-69
2022/03/30 07:38:20;;;;;;;19.80;9.15;;;12.70;99.90;;;;;;5086023;28;20844;-70
2022/03/30 07:40:48;;;;;;;25.70;9.10;;;12.70;99.90;;;;;;5086645;28;20039;-70
2022/03/30 07:43:15;;;;;;;20.85;8.40;;;12.70;99.90;;;;;;5089221;28;20059;-69
2022/03/30 07:45:41;;;;;;;18.50;8.57;;;12.70;99.90;;;;;;5087817;28;20024;-69
2022/03/30 07:48:08;;;;;;;21.00;8.68;;;12.70;99.90;;;;;;5087683;28;20028;-69
2022/03/30 07:50:34;;;;;;;25.67;8.25;;;12.70;99.90;;;;;;5088939;28;20070;-70
2022/03/30 07:53:01;;;;;;;22.27;8.73;;;12.70;99.90;;;;;;5090829;28;20149;-69
2022/03/30 07:55:28;;;;;;;18.88;9.25;;;12.70;99.90;;;;;;5083525;28;20039;-74
2022/03/30 07:57:54;;;;;;;25.23;9.52;;;12.70;99.90;;;;;;5089562;28;20444;-74
2022/03/30 08:00:21;;;;;;;22.50;9.18;;;12.70;99.90;;;;;;5100055;28;20042;-73
2022/03/30 08:02:49;;;;;;;24.52;9.50;;;12.70;99.90;;;;;;5089480;28;20062;-73
2022/03/30 08:05:15;;;;;;;22.42;10.45;;;12.60;99.90;;;;;;5097030;28;20012;-73
2022/03/30 08:07:46;;;;;;;25.08;10.57;;;12.70;99.90;;;;;;5098041;28;20024;-73
2022/03/30 08:10:12;;;;;;;21.63;9.30;;;12.70;99.90;;;;;;5077831;28;20024;-73
2022/03/30 08:12:42;;;;;;;26.23;10.15;;;12.70;99.90;;;;;;5095721;28;20044;-73
2022/03/30 08:15:09;;;;;;;27.40;10.38;;;12.70;99.90;;;;;;5095264;28;20019;-73
2022/03/30 08:17:35;;;;;;;26.83;11.30;;;12.60;99.90;;;;;;5092072;28;20032;-73
2022/03/30 08:20:02;;;;;;;30.27;11.40;;;12.60;99.90;;;;;;5099048;28;20472;-72
2022/03/30 08:22:30;;;;;;;27.17;10.88;;;12.70;99.90;;;;;;5095627;28;20100;-73
2022/03/30 08:25:01;;;;;;;22.63;11.98;;;12.70;99.90;;;;;;5095578;28;20032;-73
2022/03/30 08:27:30;;;;;;;27.65;10.73;;;12.70;99.90;;;;;;5095636;28;20025;-73
2022/03/30 08:29:57;;;;;;;24.80;11.80;;;12.70;99.90;;;;;;5093688;28;20016;-73
2022/03/30 08:32:24;;;;;;;19.75;11.55;;;12.70;99.90;;;;;;5095180;28;20412;-73
2022/03/30 08:34:52;;;;;;;29.48;14.80;;;12.70;99.90;;;;;;5092159;28;20477;-73
2022/03/30 08:37:18;;;;;;;33.97;16.38;;;12.80;99.90;;;;;;5090818;28;20032;-73
2022/03/30 08:39:44;;;;;;;24.67;14.00;;;12.80;99.90;;;;;;5090900;28;20549;-73
2022/03/30 08:42:13;;;;;;;30.25;14.77;;;12.80;99.90;;;;;;5090953;28;20069;-73
2022/03/30 08:44:41;;;;;;;27.38;14.43;;;12.80;99.90;;;;;;5075415;28;20047;-73
2022/03/30 08:47:07;;;;;;;25.17;13.00;;;12.90;99.90;;;;;;5089708;28;20485;-73
2022/03/30 08:49:35;;;;;;;25.77;13.57;;;12.90;99.90;;;;;;5090515;28;20109;-73
2022/03/30 08:52:02;;;;;;;33.72;17.20;;;13.00;99.90;;;;;;5090524;28;20086;-73
2022/03/30 08:54:28;;;;;;;29.50;15.68;;;13.10;99.90;;;;;;5091296;28;20096;-73
2022/03/30 08:56:54;;;;;;;25.10;12.93;;;13.10;99.90;;;;;;5090744;28;20020;-73
2022/03/30 08:59:21;;;;;;;25.30;14.10;;;13.20;99.90;;;;;;5092839;28;20456;-73
2022/03/30 09:01:49;;;;;;;22.08;12.88;;;13.20;99.90;;;;;;5091819;28;20020;-74
2022/03/30 09:04:17;;;;;;;26.15;13.88;;;13.20;99.90;;;;;;5089998;28;20073;-73
2022/03/30 09:06:45;;;;;;;26.80;14.73;;;13.20;99.90;;;;;;5090937;28;20055;-73
2022/03/30 09:09:11;;;;;;;27.88;12.63;;;13.20;99.90;;;;;;5090300;28;20565;-73
2022/03/30 09:11:52;;;;;;;23.90;12.77;;;13.30;99.90;;;;;;5091027;28;20028;-73
2022/03/30 09:14:20;;;;;;;22.92;10.82;;;13.30;99.90;;;;;;5092198;28;20040;-73
2022/03/30 09:16:55;;;;;;;21.02;10.70;;;13.30;99.90;;;;;;5091272;28;20031;-73
2022/03/30 09:19:21;;;;;;;24.67;10.75;;;13.40;99.90;;;;;;5090015;28;20031;-73
2022/03/30 09:21:48;;;;;;;19.58;10.90;;;13.40;99.90;;;;;;5090352;28;20120;-73
2022/03/30 09:24:17;;;;;;;21.88;11.13;;;13.50;99.90;;;;;;5090555;28;20016;-73
2022/03/30 09:26:43;;;;;;;23.67;12.43;;;13.40;99.90;;;;;;5090242;28;20072;-73
2022/03/30 09:29:10;;;;;;;20.83;11.25;;;13.50;99.90;;;;;;5093203;28;20112;-73
2022/03/30 09:31:39;;;;;;;27.58;12.45;;;13.60;99.90;;;;;;5090212;28;20408;-73
2022/03/30 09:34:06;;;;;;;27.95;12.88;;;13.60;99.90;;;;;;5089939;28;20016;-73
2022/03/30 09:36:40;;;;;;;23.40;12.02;;;13.60;99.90;;;;;;5089877;28;20044;-73
2022/03/30 09:39:12;;;;;;;26.25;13.63;;;13.80;99.90;;;;;;5089730;28;20017;-73
2022/03/30 09:41:52;;;;;;;28.80;13.45;;;13.80;99.90;;;;;;5073622;28;20032;-72
2022/03/30 09:44:18;;;;;;;29.60;13.60;;;13.80;99.90;;;;;;5088791;28;20020;-71
2022/03/30 09:47:11;;;;;;;29.40;13.70;;;13.90;99.90;;;;;;5090263;28;20028;-73
2022/03/30 09:49:39;;;;;;;26.88;13.20;;;13.90;99.90;;;;;;5070498;28;20071;-72
2022/03/30 09:52:17;;;;;;;28.60;14.32;;;14.00;99.90;;;;;;5089331;28;20043;-72
2022/03/30 09:54:57;;;;;;;39.85;14.68;;;14.10;99.90;;;;;;5072250;28;20047;-72
2022/03/30 09:57:37;;;;;;;22.65;11.88;;;14.10;99.90;;;;;;5089410;28;20020;-72
2022/03/30 10:00:19;;;;;;;27.95;14.20;;;14.20;99.90;;;;;;5089046;28;20023;-71
2022/03/30 10:02:48;;;;;;;21.95;12.57;;;14.20;99.90;;;;;;5073735;28;20028;-72
2022/03/30 10:05:18;;;;;;;24.42;11.27;;;14.20;99.90;;;;;;5091864;28;20032;-71
2022/03/30 10:07:47;;;;;;;25.08;11.07;;;14.20;99.90;;;;;;5092008;28;20519;-70
2022/03/30 10:10:15;;;;;;;20.73;10.27;;;14.20;99.90;;;;;;5088852;28;20493;-70
2022/03/30 10:12:42;;;;;;;20.42;10.35;;;14.20;99.90;;;;;;5089181;28;20038;-73
2022/03/30 10:15:09;;;;;;;24.88;10.77;;;14.20;99.90;;;;;;5089275;28;20028;-70
2022/03/30 10:17:36;;;;;;;22.58;11.45;;;14.20;99.90;;;;;;5090143;28;20452;-69
2022/03/30 10:20:03;;;;;;;18.98;10.27;;;14.20;99.90;;;;;;5092482;28;20404;-70
2022/03/30 10:22:38;;;;;;;21.23;9.82;;;14.20;99.90;;;;;;5088696;28;20019;-69
2022/03/30 10:25:10;;;;;;;19.88;10.13;;;14.30;99.90;;;;;;5088570;28;20028;-70
2022/03/30 10:27:48;;;;;;;23.35;9.70;;;14.30;99.90;;;;;;5088339;28;20020;-69
2022/03/30 10:30:14;;;;;;;23.83;10.43;;;14.40;99.90;;;;;;5088548;28;20445;-68
2022/03/30 10:32:40;;;;;;;24.35;9.77;;;14.30;99.90;;;;;;5089164;28;20048;-68
2022/03/30 10:35:08;;;;;;;19.88;10.07;;;14.30;99.90;;;;;;5092401;28;20095;-67
2022/03/30 10:37:37;;;;;;;22.00;10.35;;;14.40;99.90;;;;;;5088784;28;20558;-69
2022/03/30 10:40:03;;;;;;;20.50;9.98;;;14.40;99.90;;;;;;5087870;28;20031;-70
2022/03/30 10:42:47;;;;;;;22.67;9.10;;;14.40;99.90;;;;;;5087754;28;20385;-69
2022/03/30 10:45:40;;;;;;;18.25;8.93;;;14.40;99.90;;;;;;5088451;28;20031;-69
2022/03/30 10:48:17;;;;;;;23.83;8.40;;;14.40;99.90;;;;;;5088046;28;20024;-68
2022/03/30 10:50:50;;;;;;;27.17;10.50;;;14.40;99.90;;;;;;5071948;28;20147;-68
2022/03/30 10:53:31;;;;;;;24.10;11.32;;;14.50;99.90;;;;;;5090478;28;20070;-67
2022/03/30 10:56:12;;;;;;;26.05;10.18;;;14.60;99.90;;;;;;5090228;28;20139;-68
2022/03/30 10:58:55;;;;;;;20.02;9.38;;;14.60;99.90;;;;;;5088288;28;20028;-69
2022/03/30 11:01:28;;;;;;;21.05;8.35;;;14.70;99.90;;;;;;5087386;28;20035;-69
2022/03/30 11:04:21;;;;;;;21.20;8.00;;;14.80;99.90;;;;;;5087568;28;20114;-69
2022/03/30 11:07:12;;;;;;;29.20;9.03;;;14.80;99.90;;;;;;5087861;28;20017;-68
2022/03/30 11:09:40;;;;;;;29.42;9.93;;;14.90;99.90;;;;;;5075298;28;20298;-68
2022/03/30 11:12:13;;;;;;;22.73;9.82;;;14.80;99.90;;;;;;5087371;28;20039;-68
2022/03/30 11:14:58;;;;;;;27.13;10.15;;;14.90;99.90;;;;;;5072451;28;20091;-68
2022/03/30 11:17:35;;;;;;;22.42;9.48;;;14.90;99.90;;;;;;5088437;28;20032;-69
2022/03/30 11:20:04;;;;;;;28.75;10.70;;;14.90;99.90;;;;;;5090287;28;20058;-68
2022/03/30 11:22:42;;;;;;;25.52;9.13;;;14.90;99.90;;;;;;5087749;28;20036;-68
2022/03/30 11:25:14;;;;;;;33.63;10.75;;;14.90;99.90;;;;;;5086996;28;20386;-69
2022/03/30 11:27:40;;;;;;;28.55;9.48;;;14.90;99.90;;;;;;5087655;28;20075;-70
2022/03/30 11:30:18;;;;;;;25.25;9.30;;;14.90;99.90;;;;;;5086603;28;20027;-69
2022/03/30 11:32:49;;;;;;;26.80;9.90;;;15.00;99.90;;;;;;5075053;28;20044;-69
2022/03/30 11:35:19;;;;;;;27.80;10.50;;;14.90;99.90;;;;;;5087180;28;20020;-69
2022/03/30 11:37:46;;;;;;;27.70;9.40;;;15.00;99.90;;;;;;5094650;28;20024;-69
2022/03/30 11:40:22;;;;;;;29.88;9.00;;;14.90;99.90;;;;;;5090102;28;20025;-69
2022/03/30 11:42:48;;;;;;;26.60;7.93;;;14.90;99.90;;;;;;5091262;28;20056;-69
2022/03/30 11:45:20;;;;;;;24.17;8.82;;;14.80;99.90;;;;;;5091708;28;20048;-69
2022/03/30 11:47:58;;;;;;;30.98;8.57;;;14.90;99.90;;;;;;5091261;28;20493;-69
2022/03/30 11:50:40;;;;;;;27.27;8.73;;;14.90;99.90;;;;;;5083010;28;20047;-69
2022/03/30 11:53:08;;;;;;;23.02;7.60;;;14.90;99.90;;;;;;5083320;28;20037;-69
2022/03/30 11:55:51;;;;;;;27.40;7.97;;;15.00;99.90;;;;;;5091643;28;20483;-69
2022/03/30 11:58:29;;;;;;;31.98;8.45;;;15.00;99.90;;;;;;5091733;28;20496;-69
2022/03/30 12:00:56;;;;;;;24.50;6.88;;;15.00;99.90;;;;;;5089450;28;20036;-69
2022/03/30 12:03:23;;;;;;;24.73;7.35;;;15.00;99.90;;;;;;5091834;28;20065;-69
2022/03/30 12:05:55;;;;;;;23.67;7.43;;;15.00;99.90;;;;;;5088826;28;20103;-69
2022/03/30 12:08:21;;;;;;;31.15;7.28;;;15.00;99.90;;;;;;5092204;28;20557;-67
2022/03/30 12:10:48;;;;;;;23.48;7.10;;;15.10;99.90;;;;;;5093778;28;20073;-72
2022/03/30 12:13:22;;;;;;;32.70;8.30;;;15.10;99.90;;;;;;5092038;28;20479;-68
2022/03/30 12:15:58;;;;;;;;;;;15.10;99.90;;;;;;5093028;28;20039;-68
2022/03/30 12:18:24;;;;;;;23.35;7.28;;;15.10;99.90;;;;;;5091648;28;19989;-68
2022/03/30 12:20:50;;;;;;;22.95;7.00;;;15.10;99.90;;;;;;5088063;28;20040;-68
2022/03/30 12:23:15;;;;;;;30.35;7.97;;;15.00;99.90;;;;;;5093233;28;20032;-69
2022/03/30 12:25:42;;;;;;;27.33;7.80;;;15.10;99.90;;;;;;5094199;28;20031;-68
2022/03/30 12:28:07;;;;;;;26.38;7.82;;;15.10;99.90;;;;;;5095453;28;20111;-68
2022/03/30 12:30:36;;;;;;;25.52;7.18;;;15.10;99.90;;;;;;5101928;28;20128;-68
2022/03/30 12:33:02;;;;;;;28.75;7.93;;;15.10;99.90;;;;;;5090946;28;20038;-68
2022/03/30 12:35:35;;;;;;;27.00;8.20;;;15.10;99.90;;;;;;5089867;28;20111;-68
2022/03/30 12:38:11;;;;;;;23.75;7.88;;;15.00;99.90;;;;;;5094685;28;20416;-69
2022/03/30 12:40:40;;;;;;;30.17;8.10;;;15.00;99.90;;;;;;5092858;28;20566;-68
2022/03/30 12:43:08;;;;;;;28.67;9.88;;;15.00;99.90;;;;;;5092167;28;20069;-68
2022/03/30 12:45:53;;;;;;;32.03;9.05;;;15.00;99.90;;;;;;5092124;28;20039;-68
2022/03/30 12:48:28;;;;;;;29.08;7.93;;;14.90;99.90;;;;;;5090755;28;20031;-68